sensor_id;sensor_type;location;lat;lon;timestamp;pressure;altitude;pressure_sealevel;temperature
74493;BMP180;62978;51.094;-115.362;2022-09-09T00:02:24;87260.40;;;26.06
74493;BMP180;62978;51.094;-115.362;2022-09-09T00:10:37;87274.80;;;24.28
74493;BMP180;62978;51.094;-115.362;2022-09-09T00:13:45;87228.60;;;23.48
74493;BMP180;62978;51.094;-115.362;2022-09-09T00:16:25;87259.40;;;24.70
74493;BMP180;62978;51.094;-115.362;2022-09-09T00:19:16;87276.40;;;23.08
74493;BMP180;62978;51.094;-115.362;2022-09-09T00:22:00;87277.00;;;21.98
74493;BMP180;62978;51.094;-115.362;2022-09-09T00:24:41;87233.20;;;21.76
74493;BMP180;62978;51.094;-115.362;2022-09-09T00:27:42;87277.80;;;21.72
74493;BMP180;62978;51.094;-115.362;2022-09-09T00:30:19;87281.00;;;20.66
74493;BMP180;62978;51.094;-115.362;2022-09-09T00:32:54;87281.40;;;20.00
74493;BMP180;62978;51.094;-115.362;2022-09-09T00:35:43;87283.80;;;19.16
74493;BMP180;62978;51.094;-115.362;2022-09-09T00:42:09;87283.80;;;18.20
74493;BMP180;62978;51.094;-115.362;2022-09-09T00:44:34;87289.20;;;17.60
74493;BMP180;62978;51.094;-115.362;2022-09-09T00:53:35;87287.40;;;16.70
74493;BMP180;62978;51.094;-115.362;2022-09-09T00:56:37;87294.80;;;16.40
74493;BMP180;62978;51.094;-115.362;2022-09-09T00:59:43;87299.00;;;16.10
74493;BMP180;62978;51.094;-115.362;2022-09-09T01:06:16;87309.20;;;15.66
74493;BMP180;62978;51.094;-115.362;2022-09-09T01:09:22;87310.20;;;15.40
74493;BMP180;62978;51.094;-115.362;2022-09-09T01:14:43;87317.20;;;15.12
74493;BMP180;62978;51.094;-115.362;2022-09-09T01:17:26;87320.80;;;15.00
74493;BMP180;62978;51.094;-115.362;2022-09-09T01:20:23;87326.40;;;14.82
74493;BMP180;62978;51.094;-115.362;2022-09-09T01:26:35;87336.60;;;14.60
74493;BMP180;62978;51.094;-115.362;2022-09-09T01:29:13;87337.00;;;14.40
74493;BMP180;62978;51.094;-115.362;2022-09-09T01:32:35;87332.40;;;14.28
74493;BMP180;62978;51.094;-115.362;2022-09-09T01:34:51;87336.60;;;14.20
74493;BMP180;62978;51.094;-115.362;2022-09-09T01:37:19;87337.80;;;14.00
74493;BMP180;62978;51.094;-115.362;2022-09-09T01:39:46;87339.00;;;13.90
74493;BMP180;62978;51.094;-115.362;2022-09-09T01:42:16;87340.80;;;13.82
74493;BMP180;62978;51.094;-115.362;2022-09-09T01:44:44;87347.20;;;13.74
74493;BMP180;62978;51.094;-115.362;2022-09-09T01:47:11;87352.40;;;13.60
74493;BMP180;62978;51.094;-115.362;2022-09-09T01:49:56;87350.60;;;13.50
74493;BMP180;62978;51.094;-115.362;2022-09-09T02:02:08;87354.00;;;12.80
74493;BMP180;62978;51.094;-115.362;2022-09-09T02:04:49;87358.20;;;12.60
74493;BMP180;62978;51.094;-115.362;2022-09-09T02:07:40;87356.80;;;12.46
74493;BMP180;62978;51.094;-115.362;2022-09-09T02:13:16;87358.60;;;12.14
74493;BMP180;62978;51.094;-115.362;2022-09-09T02:16:03;87362.60;;;12.00
74493;BMP180;62978;51.094;-115.362;2022-09-09T02:18:53;87364.60;;;11.90
74493;BMP180;62978;51.094;-115.362;2022-09-09T02:21:23;87366.60;;;11.80
74493;BMP180;62978;51.094;-115.362;2022-09-09T02:23:54;87361.20;;;11.70
74493;BMP180;62978;51.094;-115.362;2022-09-09T02:26:23;87365.00;;;11.60
74493;BMP180;62978;51.094;-115.362;2022-09-09T02:28:57;87374.40;;;11.52
74493;BMP180;62978;51.094;-115.362;2022-09-09T02:31:26;87377.00;;;11.50
74493;BMP180;62978;51.094;-115.362;2022-09-09T02:33:59;87384.20;;;11.40
74493;BMP180;62978;51.094;-115.362;2022-09-09T02:36:32;87387.40;;;11.30
74493;BMP180;62978;51.094;-115.362;2022-09-09T02:39:00;87384.60;;;11.20
74493;BMP180;62978;51.094;-115.362;2022-09-09T02:41:48;87388.40;;;11.12
74493;BMP180;62978;51.094;-115.362;2022-09-09T02:44:18;87390.40;;;11.10
74493;BMP180;62978;51.094;-115.362;2022-09-09T02:47:25;87392.60;;;11.00
74493;BMP180;62978;51.094;-115.362;2022-09-09T02:50:22;87400.80;;;10.90
74493;BMP180;62978;51.094;-115.362;2022-09-09T02:53:17;87402.00;;;10.80
74493;BMP180;62978;51.094;-115.362;2022-09-09T02:58:18;87403.40;;;10.68
74493;BMP180;62978;51.094;-115.362;2022-09-09T03:00:51;87403.40;;;10.60
74493;BMP180;62978;51.094;-115.362;2022-09-09T03:03:20;87406.40;;;10.50
74493;BMP180;62978;51.094;-115.362;2022-09-09T03:05:48;87406.40;;;10.44
74493;BMP180;62978;51.094;-115.362;2022-09-09T03:08:16;87403.00;;;10.40
74493;BMP180;62978;51.094;-115.362;2022-09-09T03:10:44;87400.60;;;10.30
74493;BMP180;62978;51.094;-115.362;2022-09-09T03:13:11;87405.60;;;10.30
74493;BMP180;62978;51.094;-115.362;2022-09-09T03:15:42;87408.40;;;10.20
74493;BMP180;62978;51.094;-115.362;2022-09-09T03:18:09;87407.60;;;10.20
74493;BMP180;62978;51.094;-115.362;2022-09-09T03:20:37;87404.80;;;10.10
74493;BMP180;62978;51.094;-115.362;2022-09-09T03:23:04;87405.40;;;10.00
74493;BMP180;62978;51.094;-115.362;2022-09-09T03:25:32;87409.80;;;9.90
74493;BMP180;62978;51.094;-115.362;2022-09-09T03:28:01;87410.40;;;9.84
74493;BMP180;62978;51.094;-115.362;2022-09-09T03:30:29;87406.20;;;9.80
74493;BMP180;62978;51.094;-115.362;2022-09-09T03:32:56;87410.00;;;9.70
74493;BMP180;62978;51.094;-115.362;2022-09-09T03:35:24;87409.00;;;9.70
74493;BMP180;62978;51.094;-115.362;2022-09-09T03:37:51;87412.60;;;9.62
74493;BMP180;62978;51.094;-115.362;2022-09-09T03:40:19;87418.00;;;9.60
74493;BMP180;62978;51.094;-115.362;2022-09-09T03:42:46;87422.40;;;9.58
74493;BMP180;62978;51.094;-115.362;2022-09-09T03:45:14;87418.60;;;9.50
74493;BMP180;62978;51.094;-115.362;2022-09-09T03:47:41;87422.60;;;9.44
74493;BMP180;62978;51.094;-115.362;2022-09-09T03:50:09;87418.40;;;9.40
74493;BMP180;62978;51.094;-115.362;2022-09-09T03:52:39;87421.60;;;9.38
74493;BMP180;62978;51.094;-115.362;2022-09-09T03:55:09;87423.40;;;9.30
74493;BMP180;62978;51.094;-115.362;2022-09-09T03:57:37;87422.40;;;9.30
74493;BMP180;62978;51.094;-115.362;2022-09-09T04:00:06;87424.20;;;9.20
74493;BMP180;62978;51.094;-115.362;2022-09-09T04:02:33;87423.40;;;9.20
74493;BMP180;62978;51.094;-115.362;2022-09-09T04:05:01;87420.80;;;9.10
74493;BMP180;62978;51.094;-115.362;2022-09-09T04:07:28;87427.40;;;9.00
74493;BMP180;62978;51.094;-115.362;2022-09-09T04:09:55;87425.00;;;8.90
74493;BMP180;62978;51.094;-115.362;2022-09-09T04:12:23;87422.60;;;8.80
74493;BMP180;62978;51.094;-115.362;2022-09-09T04:14:50;87426.60;;;8.80
74493;BMP180;62978;51.094;-115.362;2022-09-09T04:17:17;87429.40;;;8.70
74493;BMP180;62978;51.094;-115.362;2022-09-09T04:19:44;87435.20;;;8.60
74493;BMP180;62978;51.094;-115.362;2022-09-09T04:22:13;87435.00;;;8.50
74493;BMP180;62978;51.094;-115.362;2022-09-09T04:24:40;87436.20;;;8.42
74493;BMP180;62978;51.094;-115.362;2022-09-09T04:27:07;87443.20;;;8.40
74493;BMP180;62978;51.094;-115.362;2022-09-09T04:29:34;87440.80;;;8.30
74493;BMP180;62978;51.094;-115.362;2022-09-09T04:32:01;87444.80;;;8.28
74493;BMP180;62978;51.094;-115.362;2022-09-09T04:34:28;87446.40;;;8.20
74493;BMP180;62978;51.094;-115.362;2022-09-09T04:36:57;87450.20;;;8.20
74493;BMP180;62978;51.094;-115.362;2022-09-09T04:39:24;87453.80;;;8.20
74493;BMP180;62978;51.094;-115.362;2022-09-09T04:41:52;87455.00;;;8.10
74493;BMP180;62978;51.094;-115.362;2022-09-09T04:44:19;87459.40;;;8.10
74493;BMP180;62978;51.094;-115.362;2022-09-09T04:46:47;87462.40;;;8.00
74493;BMP180;62978;51.094;-115.362;2022-09-09T04:49:14;87465.60;;;8.00
74493;BMP180;62978;51.094;-115.362;2022-09-09T04:51:41;87469.60;;;8.00
74493;BMP180;62978;51.094;-115.362;2022-09-09T04:54:09;87468.40;;;7.90
74493;BMP180;62978;51.094;-115.362;2022-09-09T04:56:38;87474.60;;;7.80
74493;BMP180;62978;51.094;-115.362;2022-09-09T04:59:05;87477.80;;;7.80
74493;BMP180;62978;51.094;-115.362;2022-09-09T05:01:32;87479.60;;;7.76
74493;BMP180;62978;51.094;-115.362;2022-09-09T05:04:00;87481.40;;;7.70
74493;BMP180;62978;51.094;-115.362;2022-09-09T05:06:28;87481.80;;;7.70
74493;BMP180;62978;51.094;-115.362;2022-09-09T05:08:58;87480.60;;;7.60
74493;BMP180;62978;51.094;-115.362;2022-09-09T05:11:29;87484.80;;;7.60
74493;BMP180;62978;51.094;-115.362;2022-09-09T05:14:03;87489.80;;;7.70
74493;BMP180;62978;51.094;-115.362;2022-09-09T05:16:30;87486.80;;;7.80
74493;BMP180;62978;51.094;-115.362;2022-09-09T05:18:58;87488.60;;;7.90
74493;BMP180;62978;51.094;-115.362;2022-09-09T05:21:25;87489.40;;;8.00
74493;BMP180;62978;51.094;-115.362;2022-09-09T05:23:53;87485.40;;;8.08
74493;BMP180;62978;51.094;-115.362;2022-09-09T05:26:22;87480.80;;;8.10
74493;BMP180;62978;51.094;-115.362;2022-09-09T05:28:50;87483.80;;;8.20
74493;BMP180;62978;51.094;-115.362;2022-09-09T05:31:19;87486.60;;;8.20
74493;BMP180;62978;51.094;-115.362;2022-09-09T05:33:47;87481.80;;;8.30
74493;BMP180;62978;51.094;-115.362;2022-09-09T05:36:20;87483.40;;;8.40
74493;BMP180;62978;51.094;-115.362;2022-09-09T05:38:48;87487.40;;;8.40
74493;BMP180;62978;51.094;-115.362;2022-09-09T05:41:17;87483.80;;;8.50
74493;BMP180;62978;51.094;-115.362;2022-09-09T05:43:45;87486.40;;;8.50
74493;BMP180;62978;51.094;-115.362;2022-09-09T05:46:19;87489.80;;;8.50
74493;BMP180;62978;51.094;-115.362;2022-09-09T05:48:48;87490.00;;;8.50
74493;BMP180;62978;51.094;-115.362;2022-09-09T05:51:22;87496.80;;;8.60
74493;BMP180;62978;51.094;-115.362;2022-09-09T05:53:51;87496.40;;;8.70
74493;BMP180;62978;51.094;-115.362;2022-09-09T05:56:22;87496.60;;;8.80
74493;BMP180;62978;51.094;-115.362;2022-09-09T05:58:50;87500.60;;;8.90
74493;BMP180;62978;51.094;-115.362;2022-09-09T06:01:31;87504.00;;;9.00
74493;BMP180;62978;51.094;-115.362;2022-09-09T06:03:59;87517.00;;;9.10
74493;BMP180;62978;51.094;-115.362;2022-09-09T06:06:34;87526.80;;;9.10
74493;BMP180;62978;51.094;-115.362;2022-09-09T06:09:08;87545.20;;;9.20
74493;BMP180;62978;51.094;-115.362;2022-09-09T06:11:40;87556.40;;;9.20
74493;BMP180;62978;51.094;-115.362;2022-09-09T06:14:08;87575.00;;;9.20
74493;BMP180;62978;51.094;-115.362;2022-09-09T06:16:36;87581.00;;;9.20
74493;BMP180;62978;51.094;-115.362;2022-09-09T06:19:06;87591.60;;;9.12
74493;BMP180;62978;51.094;-115.362;2022-09-09T06:21:36;87619.20;;;8.80
74493;BMP180;62978;51.094;-115.362;2022-09-09T06:24:04;87625.60;;;8.40
74493;BMP180;62978;51.094;-115.362;2022-09-09T06:26:38;87634.80;;;8.20
74493;BMP180;62978;51.094;-115.362;2022-09-09T06:29:10;87643.40;;;7.90
74493;BMP180;62978;51.094;-115.362;2022-09-09T06:31:38;87658.20;;;7.60
74493;BMP180;62978;51.094;-115.362;2022-09-09T06:34:07;87667.80;;;7.40
74493;BMP180;62978;51.094;-115.362;2022-09-09T06:36:38;87672.80;;;7.20
74493;BMP180;62978;51.094;-115.362;2022-09-09T06:39:06;87672.60;;;7.10
74493;BMP180;62978;51.094;-115.362;2022-09-09T06:41:34;87684.80;;;6.90
74493;BMP180;62978;51.094;-115.362;2022-09-09T06:44:01;87691.00;;;6.90
74493;BMP180;62978;51.094;-115.362;2022-09-09T06:46:31;87698.40;;;7.10
74493;BMP180;62978;51.094;-115.362;2022-09-09T06:49:00;87701.80;;;7.20
74493;BMP180;62978;51.094;-115.362;2022-09-09T06:51:34;87704.80;;;7.28
74493;BMP180;62978;51.094;-115.362;2022-09-09T06:54:03;87708.20;;;7.30
74493;BMP180;62978;51.094;-115.362;2022-09-09T06:56:39;87710.20;;;7.30
74493;BMP180;62978;51.094;-115.362;2022-09-09T06:59:09;87709.60;;;7.40
74493;BMP180;62978;51.094;-115.362;2022-09-09T07:01:40;87703.00;;;7.30
74493;BMP180;62978;51.094;-115.362;2022-09-09T07:04:08;87694.20;;;7.20
74493;BMP180;62978;51.094;-115.362;2022-09-09T07:06:41;87708.80;;;7.14
74493;BMP180;62978;51.094;-115.362;2022-09-09T07:09:13;87714.20;;;7.00
74493;BMP180;62978;51.094;-115.362;2022-09-09T07:11:46;87713.40;;;6.90
74493;BMP180;62978;51.094;-115.362;2022-09-09T07:14:15;87710.00;;;6.74
74493;BMP180;62978;51.094;-115.362;2022-09-09T07:16:44;87713.20;;;6.60
74493;BMP180;62978;51.094;-115.362;2022-09-09T07:19:12;87717.80;;;6.50
74493;BMP180;62978;51.094;-115.362;2022-09-09T07:21:41;87724.40;;;6.40
74493;BMP180;62978;51.094;-115.362;2022-09-09T07:24:09;87727.60;;;6.30
74493;BMP180;62978;51.094;-115.362;2022-09-09T07:26:38;87734.00;;;6.20
74493;BMP180;62978;51.094;-115.362;2022-09-09T07:29:07;87736.00;;;6.10
74493;BMP180;62978;51.094;-115.362;2022-09-09T07:31:38;87735.20;;;6.10
74493;BMP180;62978;51.094;-115.362;2022-09-09T07:34:06;87730.40;;;6.00
74493;BMP180;62978;51.094;-115.362;2022-09-09T07:36:37;87734.40;;;6.00
74493;BMP180;62978;51.094;-115.362;2022-09-09T07:39:09;87734.60;;;5.90
74493;BMP180;62978;51.094;-115.362;2022-09-09T07:41:44;87741.20;;;5.90
74493;BMP180;62978;51.094;-115.362;2022-09-09T07:44:15;87743.00;;;5.88
74493;BMP180;62978;51.094;-115.362;2022-09-09T07:46:43;87743.40;;;5.80
74493;BMP180;62978;51.094;-115.362;2022-09-09T07:49:12;87738.60;;;5.70
74493;BMP180;62978;51.094;-115.362;2022-09-09T07:51:44;87738.40;;;5.74
74493;BMP180;62978;51.094;-115.362;2022-09-09T07:54:15;87739.40;;;5.72
74493;BMP180;62978;51.094;-115.362;2022-09-09T07:56:42;87738.20;;;5.80
74493;BMP180;62978;51.094;-115.362;2022-09-09T07:59:10;87733.80;;;5.76
74493;BMP180;62978;51.094;-115.362;2022-09-09T08:01:48;87739.60;;;5.70
74493;BMP180;62978;51.094;-115.362;2022-09-09T08:04:21;87739.20;;;5.70
74493;BMP180;62978;51.094;-115.362;2022-09-09T08:06:56;87734.20;;;5.70
74493;BMP180;62978;51.094;-115.362;2022-09-09T08:09:25;87742.20;;;5.78
74493;BMP180;62978;51.094;-115.362;2022-09-09T08:11:56;87744.00;;;5.80
74493;BMP180;62978;51.094;-115.362;2022-09-09T08:14:25;87736.60;;;5.80
74493;BMP180;62978;51.094;-115.362;2022-09-09T08:16:53;87740.60;;;5.80
74493;BMP180;62978;51.094;-115.362;2022-09-09T08:19:20;87735.60;;;5.70
74493;BMP180;62978;51.094;-115.362;2022-09-09T08:21:48;87734.60;;;5.70
74493;BMP180;62978;51.094;-115.362;2022-09-09T08:24:15;87732.20;;;5.72
74493;BMP180;62978;51.094;-115.362;2022-09-09T08:26:46;87729.20;;;5.70
74493;BMP180;62978;51.094;-115.362;2022-09-09T08:29:15;87732.40;;;5.70
74493;BMP180;62978;51.094;-115.362;2022-09-09T08:31:46;87728.80;;;5.70
74493;BMP180;62978;51.094;-115.362;2022-09-09T08:34:14;87733.60;;;5.80
74493;BMP180;62978;51.094;-115.362;2022-09-09T08:36:44;87725.20;;;5.70
74493;BMP180;62978;51.094;-115.362;2022-09-09T08:39:15;87720.80;;;5.70
74493;BMP180;62978;51.094;-115.362;2022-09-09T08:45:13;87727.40;;;5.84
74493;BMP180;62978;51.094;-115.362;2022-09-09T08:48:15;87730.20;;;5.82
74493;BMP180;62978;51.094;-115.362;2022-09-09T08:50:49;87726.40;;;5.80
74493;BMP180;62978;51.094;-115.362;2022-09-09T08:53:24;87730.20;;;5.80
74493;BMP180;62978;51.094;-115.362;2022-09-09T08:56:11;87729.40;;;5.90
74493;BMP180;62978;51.094;-115.362;2022-09-09T08:58:52;87718.60;;;6.00
74493;BMP180;62978;51.094;-115.362;2022-09-09T09:19:22;87722.40;;;6.02
74493;BMP180;62978;51.094;-115.362;2022-09-09T09:25:04;87716.80;;;5.90
74493;BMP180;62978;51.094;-115.362;2022-09-09T09:30:23;87720.60;;;5.80
74493;BMP180;62978;51.094;-115.362;2022-09-09T09:33:08;87719.80;;;5.80
74493;BMP180;62978;51.094;-115.362;2022-09-09T09:35:41;87710.60;;;5.78
74493;BMP180;62978;51.094;-115.362;2022-09-09T09:38:35;87713.20;;;5.80
74493;BMP180;62978;51.094;-115.362;2022-09-09T09:41:03;87714.40;;;5.90
74493;BMP180;62978;51.094;-115.362;2022-09-09T09:43:40;87718.20;;;5.92
74493;BMP180;62978;51.094;-115.362;2022-09-09T09:46:23;87718.20;;;6.00
74493;BMP180;62978;51.094;-115.362;2022-09-09T09:49:04;87717.00;;;6.00
74493;BMP180;62978;51.094;-115.362;2022-09-09T09:51:34;87713.80;;;6.00
74493;BMP180;62978;51.094;-115.362;2022-09-09T09:54:27;87710.60;;;6.00
74493;BMP180;62978;51.094;-115.362;2022-09-09T09:56:55;87712.60;;;6.00
74493;BMP180;62978;51.094;-115.362;2022-09-09T10:02:38;87720.40;;;6.00
74493;BMP180;62978;51.094;-115.362;2022-09-09T10:05:15;87726.40;;;6.00
74493;BMP180;62978;51.094;-115.362;2022-09-09T10:07:43;87720.60;;;6.00
74493;BMP180;62978;51.094;-115.362;2022-09-09T10:10:27;87728.20;;;6.00
74493;BMP180;62978;51.094;-115.362;2022-09-09T10:13:36;87729.00;;;6.00
74493;BMP180;62978;51.094;-115.362;2022-09-09T10:16:40;87730.60;;;6.10
74493;BMP180;62978;51.094;-115.362;2022-09-09T10:19:31;87727.40;;;6.10
74493;BMP180;62978;51.094;-115.362;2022-09-09T10:31:29;87739.20;;;6.00
74493;BMP180;62978;51.094;-115.362;2022-09-09T10:34:06;87739.20;;;5.90
74493;BMP180;62978;51.094;-115.362;2022-09-09T10:36:47;87745.60;;;5.90
74493;BMP180;62978;51.094;-115.362;2022-09-09T10:39:36;87740.80;;;5.90
74493;BMP180;62978;51.094;-115.362;2022-09-09T10:42:13;87747.20;;;5.98
74493;BMP180;62978;51.094;-115.362;2022-09-09T10:48:11;87751.60;;;5.84
74493;BMP180;62978;51.094;-115.362;2022-09-09T10:50:50;87757.20;;;5.80
74493;BMP180;62978;51.094;-115.362;2022-09-09T10:56:16;87754.40;;;5.70
74493;BMP180;62978;51.094;-115.362;2022-09-09T10:58:59;87751.40;;;5.60
74493;BMP180;62978;51.094;-115.362;2022-09-09T11:02:00;87750.60;;;5.60
74493;BMP180;62978;51.094;-115.362;2022-09-09T11:04:45;87747.20;;;5.70
74493;BMP180;62978;51.094;-115.362;2022-09-09T11:07:44;87745.80;;;5.60
74493;BMP180;62978;51.094;-115.362;2022-09-09T11:10:58;87739.20;;;5.50
74493;BMP180;62978;51.094;-115.362;2022-09-09T11:13:56;87744.80;;;5.40
74493;BMP180;62978;51.094;-115.362;2022-09-09T11:21:47;87739.00;;;5.50
74493;BMP180;62978;51.094;-115.362;2022-09-09T11:24:27;87739.80;;;5.50
74493;BMP180;62978;51.094;-115.362;2022-09-09T11:36:38;87747.60;;;5.70
74493;BMP180;62978;51.094;-115.362;2022-09-09T11:42:17;87742.20;;;5.66
74493;BMP180;62978;51.094;-115.362;2022-09-09T11:44:46;87742.00;;;5.70
74493;BMP180;62978;51.094;-115.362;2022-09-09T11:47:29;87744.60;;;5.70
74493;BMP180;62978;51.094;-115.362;2022-09-09T11:52:46;87742.00;;;5.60
74493;BMP180;62978;51.094;-115.362;2022-09-09T11:55:28;87738.80;;;5.60
74493;BMP180;62978;51.094;-115.362;2022-09-09T11:58:05;87735.00;;;5.50
74493;BMP180;62978;51.094;-115.362;2022-09-09T12:00:42;87741.20;;;5.40
74493;BMP180;62978;51.094;-115.362;2022-09-09T12:06:31;87743.20;;;5.42
74493;BMP180;62978;51.094;-115.362;2022-09-09T12:14:59;87744.80;;;5.40
74493;BMP180;62978;51.094;-115.362;2022-09-09T12:17:30;87741.80;;;5.40
74493;BMP180;62978;51.094;-115.362;2022-09-09T12:37:18;87731.00;;;5.30
74493;BMP180;62978;51.094;-115.362;2022-09-09T12:40:17;87737.00;;;5.30
74493;BMP180;62978;51.094;-115.362;2022-09-09T12:42:45;87736.80;;;5.20
74493;BMP180;62978;51.094;-115.362;2022-09-09T12:45:22;87739.20;;;5.12
74493;BMP180;62978;51.094;-115.362;2022-09-09T12:48:08;87738.80;;;5.20
74493;BMP180;62978;51.094;-115.362;2022-09-09T12:50:50;87735.60;;;5.20
74493;BMP180;62978;51.094;-115.362;2022-09-09T12:53:22;87741.80;;;5.20
74493;BMP180;62978;51.094;-115.362;2022-09-09T12:56:03;87745.80;;;5.20
74493;BMP180;62978;51.094;-115.362;2022-09-09T12:58:31;87747.20;;;5.20
74493;BMP180;62978;51.094;-115.362;2022-09-09T13:01:04;87742.20;;;5.20
74493;BMP180;62978;51.094;-115.362;2022-09-09T13:03:33;87746.00;;;5.20
74493;BMP180;62978;51.094;-115.362;2022-09-09T13:06:31;87744.60;;;5.20
74493;BMP180;62978;51.094;-115.362;2022-09-09T13:09:02;87750.00;;;5.20
74493;BMP180;62978;51.094;-115.362;2022-09-09T13:11:43;87747.00;;;5.20
74493;BMP180;62978;51.094;-115.362;2022-09-09T13:14:36;87745.80;;;5.14
74493;BMP180;62978;51.094;-115.362;2022-09-09T13:17:19;87748.60;;;5.20
74493;BMP180;62978;51.094;-115.362;2022-09-09T13:19:48;87752.60;;;5.20
74493;BMP180;62978;51.094;-115.362;2022-09-09T13:22:37;87749.60;;;5.20
74493;BMP180;62978;51.094;-115.362;2022-09-09T13:27:41;87746.80;;;5.20
74493;BMP180;62978;51.094;-115.362;2022-09-09T13:30:25;87748.80;;;5.18
74493;BMP180;62978;51.094;-115.362;2022-09-09T13:38:24;87743.80;;;5.04
74493;BMP180;62978;51.094;-115.362;2022-09-09T13:41:04;87747.40;;;5.00
74493;BMP180;62978;51.094;-115.362;2022-09-09T13:43:43;87746.60;;;5.00
74493;BMP180;62978;51.094;-115.362;2022-09-09T13:46:38;87736.60;;;4.90
74493;BMP180;62978;51.094;-115.362;2022-09-09T13:51:50;87755.80;;;4.70
74493;BMP180;62978;51.094;-115.362;2022-09-09T13:54:21;87756.00;;;4.60
74493;BMP180;62978;51.094;-115.362;2022-09-09T13:56:49;87766.60;;;4.68
74493;BMP180;62978;51.094;-115.362;2022-09-09T13:59:19;87768.20;;;4.70
74493;BMP180;62978;51.094;-115.362;2022-09-09T14:01:47;87772.80;;;4.80
74493;BMP180;62978;51.094;-115.362;2022-09-09T14:04:16;87770.40;;;4.90
74493;BMP180;62978;51.094;-115.362;2022-09-09T14:06:43;87778.40;;;5.00
74493;BMP180;62978;51.094;-115.362;2022-09-09T14:09:15;87774.00;;;5.00
74493;BMP180;62978;51.094;-115.362;2022-09-09T14:11:44;87769.40;;;5.10
74493;BMP180;62978;51.094;-115.362;2022-09-09T14:14:12;87765.00;;;5.10
74493;BMP180;62978;51.094;-115.362;2022-09-09T14:16:40;87772.20;;;5.18
74493;BMP180;62978;51.094;-115.362;2022-09-09T14:19:09;87769.80;;;5.20
74493;BMP180;62978;51.094;-115.362;2022-09-09T14:21:36;87772.80;;;5.10
74493;BMP180;62978;51.094;-115.362;2022-09-09T14:24:03;87772.20;;;5.00
74493;BMP180;62978;51.094;-115.362;2022-09-09T14:26:31;87771.40;;;5.00
74493;BMP180;62978;51.094;-115.362;2022-09-09T14:28:58;87771.80;;;4.90
74493;BMP180;62978;51.094;-115.362;2022-09-09T14:31:27;87782.20;;;4.80
74493;BMP180;62978;51.094;-115.362;2022-09-09T14:33:55;87782.60;;;4.70
74493;BMP180;62978;51.094;-115.362;2022-09-09T14:36:22;87782.20;;;4.76
74493;BMP180;62978;51.094;-115.362;2022-09-09T14:38:51;87788.80;;;4.80
74493;BMP180;62978;51.094;-115.362;2022-09-09T14:41:19;87788.40;;;5.00
74493;BMP180;62978;51.094;-115.362;2022-09-09T14:43:49;87784.60;;;5.10
74493;BMP180;62978;51.094;-115.362;2022-09-09T14:46:19;87790.20;;;5.28
74493;BMP180;62978;51.094;-115.362;2022-09-09T14:48:47;87785.00;;;5.40
74493;BMP180;62978;51.094;-115.362;2022-09-09T14:51:24;87785.00;;;5.50
74493;BMP180;62978;51.094;-115.362;2022-09-09T14:53:59;87787.40;;;5.60
74493;BMP180;62978;51.094;-115.362;2022-09-09T14:56:32;87786.40;;;5.60
74493;BMP180;62978;51.094;-115.362;2022-09-09T14:59:02;87794.80;;;5.70
74493;BMP180;62978;51.094;-115.362;2022-09-09T15:01:31;87791.60;;;5.70
74493;BMP180;62978;51.094;-115.362;2022-09-09T15:04:05;87796.00;;;5.70
74493;BMP180;62978;51.094;-115.362;2022-09-09T15:06:35;87796.80;;;5.70
74493;BMP180;62978;51.094;-115.362;2022-09-09T15:09:08;87799.40;;;5.72
74493;BMP180;62978;51.094;-115.362;2022-09-09T15:11:37;87802.20;;;5.70
74493;BMP180;62978;51.094;-115.362;2022-09-09T15:14:06;87802.20;;;5.90
74493;BMP180;62978;51.094;-115.362;2022-09-09T15:16:34;87803.80;;;6.00
74493;BMP180;62978;51.094;-115.362;2022-09-09T15:19:02;87803.80;;;6.20
74493;BMP180;62978;51.094;-115.362;2022-09-09T15:21:34;87805.80;;;6.40
74493;BMP180;62978;51.094;-115.362;2022-09-09T15:24:01;87808.40;;;6.70
74493;BMP180;62978;51.094;-115.362;2022-09-09T15:26:28;87801.60;;;7.00
74493;BMP180;62978;51.094;-115.362;2022-09-09T15:28:56;87801.80;;;7.18
74493;BMP180;62978;51.094;-115.362;2022-09-09T15:31:29;87802.20;;;7.40
74493;BMP180;62978;51.094;-115.362;2022-09-09T15:34:03;87801.00;;;7.18
74493;BMP180;62978;51.094;-115.362;2022-09-09T15:39:02;87805.60;;;7.10
74493;BMP180;62978;51.094;-115.362;2022-09-09T15:41:30;87801.00;;;7.18
74493;BMP180;62978;51.094;-115.362;2022-09-09T15:44:01;87800.20;;;7.10
74493;BMP180;62978;51.094;-115.362;2022-09-09T15:46:56;87799.80;;;7.20
74493;BMP180;62978;51.094;-115.362;2022-09-09T15:49:25;87799.40;;;7.10
74493;BMP180;62978;51.094;-115.362;2022-09-09T15:51:55;87790.40;;;7.10
74493;BMP180;62978;51.094;-115.362;2022-09-09T15:54:25;87788.60;;;7.04
74493;BMP180;62978;51.094;-115.362;2022-09-09T15:57:00;87784.40;;;7.02
74493;BMP180;62978;51.094;-115.362;2022-09-09T15:59:30;87779.20;;;7.00
74493;BMP180;62978;51.094;-115.362;2022-09-09T16:01:58;87777.00;;;7.08
74493;BMP180;62978;51.094;-115.362;2022-09-09T16:04:27;87776.40;;;7.10
74493;BMP180;62978;51.094;-115.362;2022-09-09T16:07:02;87771.20;;;7.26
74493;BMP180;62978;51.094;-115.362;2022-09-09T16:09:30;87767.40;;;7.40
74493;BMP180;62978;51.094;-115.362;2022-09-09T16:12:00;87763.20;;;7.50
74493;BMP180;62978;51.094;-115.362;2022-09-09T16:14:28;87765.20;;;7.50
74493;BMP180;62978;51.094;-115.362;2022-09-09T16:16:55;87768.20;;;7.40
74493;BMP180;62978;51.094;-115.362;2022-09-09T16:19:22;87764.20;;;7.42
74493;BMP180;62978;51.094;-115.362;2022-09-09T16:21:50;87765.80;;;7.50
74493;BMP180;62978;51.094;-115.362;2022-09-09T16:24:19;87764.80;;;7.54
74493;BMP180;62978;51.094;-115.362;2022-09-09T16:26:51;87769.20;;;7.60
74493;BMP180;62978;51.094;-115.362;2022-09-09T16:29:20;87768.00;;;7.70
74493;BMP180;62978;51.094;-115.362;2022-09-09T16:31:49;87772.20;;;7.72
74493;BMP180;62978;51.094;-115.362;2022-09-09T16:34:17;87766.20;;;7.80
74493;BMP180;62978;51.094;-115.362;2022-09-09T16:36:46;87768.80;;;7.94
74493;BMP180;62978;51.094;-115.362;2022-09-09T16:39:18;87773.40;;;8.08
74493;BMP180;62978;51.094;-115.362;2022-09-09T16:41:47;87777.00;;;8.20
74493;BMP180;62978;51.094;-115.362;2022-09-09T16:44:17;87775.00;;;8.30
74493;BMP180;62978;51.094;-115.362;2022-09-09T16:46:47;87769.60;;;8.40